sensor_id;sensor_type;location;lat;lon;timestamp;temperature;humidity
58517;DHT22;44308;50.810;0.284;2023-04-03T00:01:13;4.00;99.90
58517;DHT22;44308;50.810;0.284;2023-04-03T00:03:39;4.00;99.90
58517;DHT22;44308;50.810;0.284;2023-04-03T00:06:07;4.00;99.90
58517;DHT22;44308;50.810;0.284;2023-04-03T00:08:35;3.90;99.90
58517;DHT22;44308;50.810;0.284;2023-04-03T00:11:01;3.90;99.90
58517;DHT22;44308;50.810;0.284;2023-04-03T00:13:27;3.80;99.90
58517;DHT22;44308;50.810;0.284;2023-04-03T00:15:56;3.80;99.90
58517;DHT22;44308;50.810;0.284;2023-04-03T00:18:22;3.80;99.90
58517;DHT22;44308;50.810;0.284;2023-04-03T00:20:48;3.70;99.90
58517;DHT22;44308;50.810;0.284;2023-04-03T00:23:15;3.70;99.90
58517;DHT22;44308;50.810;0.284;2023-04-03T00:25:41;3.70;99.90
58517;DHT22;44308;50.810;0.284;2023-04-03T00:28:07;3.70;99.90
58517;DHT22;44308;50.810;0.284;2023-04-03T00:30:33;3.80;99.90
58517;DHT22;44308;50.810;0.284;2023-04-03T00:32:59;3.80;99.90
58517;DHT22;44308;50.810;0.284;2023-04-03T00:35:27;3.90;99.90
58517;DHT22;44308;50.810;0.284;2023-04-03T00:37:54;3.90;99.90
58517;DHT22;44308;50.810;0.284;2023-04-03T00:40:21;4.00;99.90
58517;DHT22;44308;50.810;0.284;2023-04-03T00:42:50;4.10;99.90
58517;DHT22;44308;50.810;0.284;2023-04-03T00:45:35;4.10;99.90
58517;DHT22;44308;50.810;0.284;2023-04-03T00:48:03;4.10;99.90
58517;DHT22;44308;50.810;0.284;2023-04-03T00:50:31;4.10;99.90
58517;DHT22;44308;50.810;0.284;2023-04-03T00:52:58;4.20;99.90
58517;DHT22;44308;50.810;0.284;2023-04-03T00:55:24;4.20;99.90
58517;DHT22;44308;50.810;0.284;2023-04-03T00:57:51;4.10;99.90
58517;DHT22;44308;50.810;0.284;2023-04-03T01:00:20;4.10;99.90
58517;DHT22;44308;50.810;0.284;2023-04-03T01:02:48;4.10;99.90
58517;DHT22;44308;50.810;0.284;2023-04-03T01:05:16;4.20;99.90
58517;DHT22;44308;50.810;0.284;2023-04-03T01:07:42;4.20;99.90
58517;DHT22;44308;50.810;0.284;2023-04-03T01:10:10;4.20;99.90
58517;DHT22;44308;50.810;0.284;2023-04-03T01:12:42;4.20;99.90
58517;DHT22;44308;50.810;0.284;2023-04-03T01:15:22;4.20;99.90
58517;DHT22;44308;50.810;0.284;2023-04-03T01:17:51;4.30;99.90
58517;DHT22;44308;50.810;0.284;2023-04-03T01:23:13;4.40;99.90
58517;DHT22;44308;50.810;0.284;2023-04-03T01:25:46;4.40;99.90
58517;DHT22;44308;50.810;0.284;2023-04-03T01:28:26;4.40;99.90
58517;DHT22;44308;50.810;0.284;2023-04-03T01:31:22;4.30;99.90
58517;DHT22;44308;50.810;0.284;2023-04-03T01:33:50;4.40;99.90
58517;DHT22;44308;50.810;0.284;2023-04-03T01:36:24;4.30;99.90
58517;DHT22;44308;50.810;0.284;2023-04-03T01:38:51;4.30;99.90
58517;DHT22;44308;50.810;0.284;2023-04-03T01:41:17;4.20;99.90
58517;DHT22;44308;50.810;0.284;2023-04-03T01:43:43;4.20;99.90
58517;DHT22;44308;50.810;0.284;2023-04-03T01:46:09;4.20;99.90
58517;DHT22;44308;50.810;0.284;2023-04-03T01:48:35;4.20;99.90
58517;DHT22;44308;50.810;0.284;2023-04-03T01:51:00;4.10;99.90
58517;DHT22;44308;50.810;0.284;2023-04-03T01:53:26;4.10;99.90
58517;DHT22;44308;50.810;0.284;2023-04-03T01:55:54;4.10;99.90
58517;DHT22;44308;50.810;0.284;2023-04-03T01:58:20;4.10;99.90
58517;DHT22;44308;50.810;0.284;2023-04-03T02:00:46;4.10;99.90
58517;DHT22;44308;50.810;0.284;2023-04-03T02:03:11;4.10;99.90
58517;DHT22;44308;50.810;0.284;2023-04-03T02:05:37;4.10;99.90
58517;DHT22;44308;50.810;0.284;2023-04-03T02:08:03;4.10;99.90
58517;DHT22;44308;50.810;0.284;2023-04-03T02:10:29;4.10;99.90
58517;DHT22;44308;50.810;0.284;2023-04-03T02:12:55;4.10;99.90
58517;DHT22;44308;50.810;0.284;2023-04-03T02:15:21;4.10;99.90
58517;DHT22;44308;50.810;0.284;2023-04-03T02:17:47;4.10;99.90
58517;DHT22;44308;50.810;0.284;2023-04-03T02:20:12;4.10;99.90
58517;DHT22;44308;50.810;0.284;2023-04-03T02:22:38;4.20;99.90
58517;DHT22;44308;50.810;0.284;2023-04-03T02:25:04;4.10;99.90
58517;DHT22;44308;50.810;0.284;2023-04-03T02:27:30;4.20;99.90
58517;DHT22;44308;50.810;0.284;2023-04-03T02:29:57;4.10;99.90
58517;DHT22;44308;50.810;0.284;2023-04-03T02:32:23;4.10;99.90
58517;DHT22;44308;50.810;0.284;2023-04-03T02:34:48;4.10;99.90
58517;DHT22;44308;50.810;0.284;2023-04-03T02:37:14;4.10;99.90
58517;DHT22;44308;50.810;0.284;2023-04-03T02:39:40;4.10;99.90
58517;DHT22;44308;50.810;0.284;2023-04-03T02:42:06;4.10;99.90
58517;DHT22;44308;50.810;0.284;2023-04-03T02:44:33;4.10;99.90
58517;DHT22;44308;50.810;0.284;2023-04-03T02:46:58;4.10;99.90
58517;DHT22;44308;50.810;0.284;2023-04-03T02:49:24;4.10;99.90
58517;DHT22;44308;50.810;0.284;2023-04-03T02:51:50;4.10;99.90
58517;DHT22;44308;50.810;0.284;2023-04-03T02:54:16;4.20;99.90
58517;DHT22;44308;50.810;0.284;2023-04-03T02:56:42;4.10;99.90
58517;DHT22;44308;50.810;0.284;2023-04-03T02:59:08;4.00;99.90
58517;DHT22;44308;50.810;0.284;2023-04-03T03:01:33;4.00;99.90
58517;DHT22;44308;50.810;0.284;2023-04-03T03:04:00;4.00;99.90
58517;DHT22;44308;50.810;0.284;2023-04-03T03:06:26;4.00;99.90
58517;DHT22;44308;50.810;0.284;2023-04-03T03:08:52;4.00;99.90
58517;DHT22;44308;50.810;0.284;2023-04-03T03:11:17;4.00;99.90
58517;DHT22;44308;50.810;0.284;2023-04-03T03:13:46;4.00;99.90
58517;DHT22;44308;50.810;0.284;2023-04-03T03:16:12;3.90;99.90
58517;DHT22;44308;50.810;0.284;2023-04-03T03:18:38;3.90;99.90
58517;DHT22;44308;50.810;0.284;2023-04-03T03:21:04;3.90;99.90
58517;DHT22;44308;50.810;0.284;2023-04-03T03:23:32;3.80;99.90
58517;DHT22;44308;50.810;0.284;2023-04-03T03:26:05;3.90;99.90
58517;DHT22;44308;50.810;0.284;2023-04-03T03:28:32;3.90;99.90
58517;DHT22;44308;50.810;0.284;2023-04-03T03:30:58;3.80;99.90
58517;DHT22;44308;50.810;0.284;2023-04-03T03:33:25;3.80;99.90
58517;DHT22;44308;50.810;0.284;2023-04-03T03:35:52;3.80;99.90
58517;DHT22;44308;50.810;0.284;2023-04-03T03:38:19;3.70;99.90
58517;DHT22;44308;50.810;0.284;2023-04-03T03:40:47;3.60;99.90
58517;DHT22;44308;50.810;0.284;2023-04-03T03:43:13;3.60;99.90
58517;DHT22;44308;50.810;0.284;2023-04-03T03:45:38;3.50;99.90
58517;DHT22;44308;50.810;0.284;2023-04-03T03:48:04;3.50;99.90
58517;DHT22;44308;50.810;0.284;2023-04-03T03:50:30;3.50;99.90
58517;DHT22;44308;50.810;0.284;2023-04-03T03:52:58;3.50;99.90
58517;DHT22;44308;50.810;0.284;2023-04-03T03:55:24;3.40;99.90
58517;DHT22;44308;50.810;0.284;2023-04-03T03:57:50;3.40;99.90
58517;DHT22;44308;50.810;0.284;2023-04-03T04:00:16;3.40;99.90
58517;DHT22;44308;50.810;0.284;2023-04-03T04:02:42;3.30;99.90
58517;DHT22;44308;50.810;0.284;2023-04-03T04:05:08;3.40;99.90
58517;DHT22;44308;50.810;0.284;2023-04-03T04:07:33;3.30;99.90
58517;DHT22;44308;50.810;0.284;2023-04-03T04:09:59;3.40;99.90
58517;DHT22;44308;50.810;0.284;2023-04-03T04:12:25;3.40;99.90
58517;DHT22;44308;50.810;0.284;2023-04-03T04:14:51;3.40;99.90
58517;DHT22;44308;50.810;0.284;2023-04-03T04:17:17;3.40;99.90
58517;DHT22;44308;50.810;0.284;2023-04-03T04:19:43;3.40;99.90
58517;DHT22;44308;50.810;0.284;2023-04-03T04:22:09;3.40;99.90
58517;DHT22;44308;50.810;0.284;2023-04-03T04:24:35;3.50;99.90
58517;DHT22;44308;50.810;0.284;2023-04-03T04:27:01;3.50;99.90
58517;DHT22;44308;50.810;0.284;2023-04-03T04:29:27;3.60;99.90
58517;DHT22;44308;50.810;0.284;2023-04-03T04:31:52;3.60;99.90
58517;DHT22;44308;50.810;0.284;2023-04-03T04:34:18;3.70;99.90
58517;DHT22;44308;50.810;0.284;2023-04-03T04:36:44;3.70;99.90
58517;DHT22;44308;50.810;0.284;2023-04-03T04:39:10;3.70;99.90
58517;DHT22;44308;50.810;0.284;2023-04-03T04:41:38;3.70;99.90
58517;DHT22;44308;50.810;0.284;2023-04-03T04:44:03;3.80;99.90
58517;DHT22;44308;50.810;0.284;2023-04-03T04:46:29;3.90;99.90
58517;DHT22;44308;50.810;0.284;2023-04-03T04:48:55;3.90;99.90
58517;DHT22;44308;50.810;0.284;2023-04-03T04:51:20;3.90;99.90
58517;DHT22;44308;50.810;0.284;2023-04-03T04:53:46;4.00;99.90
58517;DHT22;44308;50.810;0.284;2023-04-03T04:56:12;4.00;99.90
58517;DHT22;44308;50.810;0.284;2023-04-03T04:58:38;4.00;99.90
58517;DHT22;44308;50.810;0.284;2023-04-03T05:01:06;4.00;99.90
58517;DHT22;44308;50.810;0.284;2023-04-03T05:03:32;4.10;99.90
58517;DHT22;44308;50.810;0.284;2023-04-03T05:05:58;4.10;99.90
58517;DHT22;44308;50.810;0.284;2023-04-03T05:08:25;4.10;99.90
58517;DHT22;44308;50.810;0.284;2023-04-03T05:10:51;4.10;99.90
58517;DHT22;44308;50.810;0.284;2023-04-03T05:13:17;4.10;99.90
58517;DHT22;44308;50.810;0.284;2023-04-03T05:15:42;4.10;99.90
58517;DHT22;44308;50.810;0.284;2023-04-03T05:18:08;4.10;99.90
58517;DHT22;44308;50.810;0.284;2023-04-03T05:20:35;4.10;99.90
58517;DHT22;44308;50.810;0.284;2023-04-03T05:23:02;4.10;99.90
58517;DHT22;44308;50.810;0.284;2023-04-03T05:25:28;4.10;99.90
58517;DHT22;44308;50.810;0.284;2023-04-03T05:27:53;4.10;99.90
58517;DHT22;44308;50.810;0.284;2023-04-03T05:30:19;4.10;99.90
58517;DHT22;44308;50.810;0.284;2023-04-03T05:32:45;4.10;99.90
58517;DHT22;44308;50.810;0.284;2023-04-03T05:35:10;4.00;99.90
58517;DHT22;44308;50.810;0.284;2023-04-03T05:37:36;4.00;99.90
58517;DHT22;44308;50.810;0.284;2023-04-03T05:40:05;4.10;99.90
58517;DHT22;44308;50.810;0.284;2023-04-03T05:42:31;4.10;99.90
58517;DHT22;44308;50.810;0.284;2023-04-03T05:44:57;4.10;99.90
58517;DHT22;44308;50.810;0.284;2023-04-03T05:47:23;4.10;99.90
58517;DHT22;44308;50.810;0.284;2023-04-03T05:49:48;4.20;99.90
58517;DHT22;44308;50.810;0.284;2023-04-03T05:52:24;4.20;99.90
58517;DHT22;44308;50.810;0.284;2023-04-03T05:54:51;4.30;99.90
58517;DHT22;44308;50.810;0.284;2023-04-03T05:57:18;4.30;99.90
58517;DHT22;44308;50.810;0.284;2023-04-03T05:59:44;4.30;99.90
58517;DHT22;44308;50.810;0.284;2023-04-03T06:02:17;4.40;99.90
58517;DHT22;44308;50.810;0.284;2023-04-03T06:04:43;4.40;99.90
58517;DHT22;44308;50.810;0.284;2023-04-03T06:07:15;4.40;99.90
58517;DHT22;44308;50.810;0.284;2023-04-03T06:09:41;4.50;99.90
58517;DHT22;44308;50.810;0.284;2023-04-03T06:12:07;4.60;99.90
58517;DHT22;44308;50.810;0.284;2023-04-03T06:14:33;4.70;99.90
58517;DHT22;44308;50.810;0.284;2023-04-03T06:16:59;4.80;99.90
58517;DHT22;44308;50.810;0.284;2023-04-03T06:19:25;4.80;99.90
58517;DHT22;44308;50.810;0.284;2023-04-03T06:21:51;4.90;99.90
58517;DHT22;44308;50.810;0.284;2023-04-03T06:24:18;5.10;99.90
58517;DHT22;44308;50.810;0.284;2023-04-03T06:26:47;5.20;99.90
58517;DHT22;44308;50.810;0.284;2023-04-03T06:29:13;5.50;99.90
58517;DHT22;44308;50.810;0.284;2023-04-03T06:31:39;5.90;99.90
58517;DHT22;44308;50.810;0.284;2023-04-03T06:34:05;6.50;99.90
58517;DHT22;44308;50.810;0.284;2023-04-03T06:36:31;7.20;99.90
58517;DHT22;44308;50.810;0.284;2023-04-03T06:38:57;7.90;99.90
58517;DHT22;44308;50.810;0.284;2023-04-03T06:41:23;7.90;99.90
58517;DHT22;44308;50.810;0.284;2023-04-03T06:43:49;8.20;99.90
58517;DHT22;44308;50.810;0.284;2023-04-03T06:46:21;8.70;99.90
58517;DHT22;44308;50.810;0.284;2023-04-03T06:48:47;8.80;99.90
58517;DHT22;44308;50.810;0.284;2023-04-03T06:51:25;8.80;99.90
58517;DHT22;44308;50.810;0.284;2023-04-03T06:53:53;8.80;99.90
58517;DHT22;44308;50.810;0.284;2023-04-03T06:56:19;9.30;99.90
58517;DHT22;44308;50.810;0.284;2023-04-03T06:58:45;10.00;99.90
58517;DHT22;44308;50.810;0.284;2023-04-03T07:01:12;10.30;99.90
58517;DHT22;44308;50.810;0.284;2023-04-03T07:03:39;10.50;99.90
58517;DHT22;44308;50.810;0.284;2023-04-03T07:06:06;10.20;99.90
58517;DHT22;44308;50.810;0.284;2023-04-03T07:08:33;9.80;99.90
58517;DHT22;44308;50.810;0.284;2023-04-03T07:11:00;9.60;99.90
58517;DHT22;44308;50.810;0.284;2023-04-03T07:13:26;10.10;99.90
58517;DHT22;44308;50.810;0.284;2023-04-03T07:15:52;10.60;99.90
58517;DHT22;44308;50.810;0.284;2023-04-03T07:18:19;11.10;99.90
58517;DHT22;44308;50.810;0.284;2023-04-03T07:20:45;11.70;99.90
58517;DHT22;44308;50.810;0.284;2023-04-03T07:23:12;12.10;99.90
58517;DHT22;44308;50.810;0.284;2023-04-03T07:25:46;12.40;99.90
58517;DHT22;44308;50.810;0.284;2023-04-03T07:28:12;12.40;99.90
58517;DHT22;44308;50.810;0.284;2023-04-03T07:30:53;12.30;99.90
58517;DHT22;44308;50.810;0.284;2023-04-03T07:33:22;12.90;99.90
58517;DHT22;44308;50.810;0.284;2023-04-03T07:35:49;13.30;99.90
58517;DHT22;44308;50.810;0.284;2023-04-03T07:38:15;13.00;99.90
58517;DHT22;44308;50.810;0.284;2023-04-03T07:40:46;13.50;99.90
58517;DHT22;44308;50.810;0.284;2023-04-03T07:43:13;13.70;99.90
58517;DHT22;44308;50.810;0.284;2023-04-03T07:45:38;14.40;99.90
58517;DHT22;44308;50.810;0.284;2023-04-03T07:48:04;15.40;99.90
58517;DHT22;44308;50.810;0.284;2023-04-03T07:50:30;16.10;99.90
58517;DHT22;44308;50.810;0.284;2023-04-03T07:52:57;16.30;99.90
58517;DHT22;44308;50.810;0.284;2023-04-03T07:55:24;16.70;99.90
58517;DHT22;44308;50.810;0.284;2023-04-03T07:57:50;17.10;99.90
58517;DHT22;44308;50.810;0.284;2023-04-03T08:00:16;17.20;99.90
58517;DHT22;44308;50.810;0.284;2023-04-03T08:02:45;17.20;99.90
58517;DHT22;44308;50.810;0.284;2023-04-03T08:05:20;17.30;99.90
58517;DHT22;44308;50.810;0.284;2023-04-03T08:07:47;17.60;99.90
58517;DHT22;44308;50.810;0.284;2023-04-03T08:10:13;17.40;99.90
58517;DHT22;44308;50.810;0.284;2023-04-03T08:12:46;17.70;99.90
58517;DHT22;44308;50.810;0.284;2023-04-03T08:15:12;18.10;99.90
58517;DHT22;44308;50.810;0.284;2023-04-03T08:17:37;17.60;99.90
58517;DHT22;44308;50.810;0.284;2023-04-03T08:20:05;17.30;99.90
58517;DHT22;44308;50.810;0.284;2023-04-03T08:22:32;17.20;99.90
58517;DHT22;44308;50.810;0.284;2023-04-03T08:24:58;16.80;99.90
58517;DHT22;44308;50.810;0.284;2023-04-03T08:27:24;16.20;99.90
58517;DHT22;44308;50.810;0.284;2023-04-03T08:29:50;16.10;99.90
58517;DHT22;44308;50.810;0.284;2023-04-03T08:32:16;15.70;99.90
58517;DHT22;44308;50.810;0.284;2023-04-03T08:34:43;14.90;99.90
58517;DHT22;44308;50.810;0.284;2023-04-03T08:37:09;14.50;99.90
58517;DHT22;44308;50.810;0.284;2023-04-03T08:39:35;13.60;99.90
58517;DHT22;44308;50.810;0.284;2023-04-03T08:42:14;13.00;99.90
58517;DHT22;44308;50.810;0.284;2023-04-03T08:45:10;12.50;99.90
58517;DHT22;44308;50.810;0.284;2023-04-03T08:50:19;12.10;99.90
58517;DHT22;44308;50.810;0.284;2023-04-03T08:52:59;11.90;99.90
58517;DHT22;44308;50.810;0.284;2023-04-03T08:55:33;12.10;99.90
58517;DHT22;44308;50.810;0.284;2023-04-03T08:58:12;11.90;99.90
58517;DHT22;44308;50.810;0.284;2023-04-03T09:03:16;12.00;99.90
58517;DHT22;44308;50.810;0.284;2023-04-03T09:06:20;12.30;99.90
58517;DHT22;44308;50.810;0.284;2023-04-03T09:16:49;13.10;99.90
58517;DHT22;44308;50.810;0.284;2023-04-03T09:22:17;13.40;99.90
58517;DHT22;44308;50.810;0.284;2023-04-03T09:24:47;13.60;99.90
58517;DHT22;44308;50.810;0.284;2023-04-03T09:27:14;13.50;99.90
58517;DHT22;44308;50.810;0.284;2023-04-03T09:29:42;13.30;99.90
58517;DHT22;44308;50.810;0.284;2023-04-03T09:32:29;13.40;99.90
58517;DHT22;44308;50.810;0.284;2023-04-03T09:34:59;13.80;99.90
58517;DHT22;44308;50.810;0.284;2023-04-03T09:37:41;13.90;99.90
58517;DHT22;44308;50.810;0.284;2023-04-03T09:43:00;14.30;99.90
58517;DHT22;44308;50.810;0.284;2023-04-03T09:45:30;14.10;99.90
58517;DHT22;44308;50.810;0.284;2023-04-03T09:48:17;14.00;99.90
58517;DHT22;44308;50.810;0.284;2023-04-03T09:50:57;14.00;99.90
58517;DHT22;44308;50.810;0.284;2023-04-03T09:53:38;14.20;99.90
58517;DHT22;44308;50.810;0.284;2023-04-03T09:58:45;13.90;99.90
58517;DHT22;44308;50.810;0.284;2023-04-03T10:01:29;14.10;99.90
58517;DHT22;44308;50.810;0.284;2023-04-03T10:06:41;13.80;99.90
58517;DHT22;44308;50.810;0.284;2023-04-03T10:14:34;13.80;99.90
58517;DHT22;44308;50.810;0.284;2023-04-03T10:23:10;13.60;99.90
58517;DHT22;44308;50.810;0.284;2023-04-03T10:25:40;14.20;99.90
58517;DHT22;44308;50.810;0.284;2023-04-03T10:28:20;13.80;99.90
58517;DHT22;44308;50.810;0.284;2023-04-03T10:31:14;13.60;99.90
58517;DHT22;44308;50.810;0.284;2023-04-03T10:34:08;13.60;99.90
58517;DHT22;44308;50.810;0.284;2023-04-03T10:36:47;13.60;99.90
58517;DHT22;44308;50.810;0.284;2023-04-03T10:42:08;13.40;99.90
58517;DHT22;44308;50.810;0.284;2023-04-03T10:45:19;13.30;99.90
58517;DHT22;44308;50.810;0.284;2023-04-03T10:48:01;13.40;99.90
58517;DHT22;44308;50.810;0.284;2023-04-03T10:53:26;13.70;99.90
58517;DHT22;44308;50.810;0.284;2023-04-03T11:01:46;13.40;99.90
58517;DHT22;44308;50.810;0.284;2023-04-03T11:04:15;13.30;99.90
58517;DHT22;44308;50.810;0.284;2023-04-03T11:07:10;12.90;99.90
58517;DHT22;44308;50.810;0.284;2023-04-03T11:09:40;13.20;99.90
58517;DHT22;44308;50.810;0.284;2023-04-03T11:14:38;13.00;99.90
58517;DHT22;44308;50.810;0.284;2023-04-03T11:17:20;13.20;99.90
58517;DHT22;44308;50.810;0.284;2023-04-03T11:19:59;13.40;99.90
58517;DHT22;44308;50.810;0.284;2023-04-03T11:28:05;13.20;99.90
58517;DHT22;44308;50.810;0.284;2023-04-03T11:33:35;13.00;99.90
58517;DHT22;44308;50.810;0.284;2023-04-03T11:36:26;12.90;99.90
58517;DHT22;44308;50.810;0.284;2023-04-03T11:38:56;13.10;99.90
58517;DHT22;44308;50.810;0.284;2023-04-03T11:41:29;13.00;99.90
58517;DHT22;44308;50.810;0.284;2023-04-03T11:44:02;13.00;99.90
58517;DHT22;44308;50.810;0.284;2023-04-03T11:47:00;12.70;99.90
58517;DHT22;44308;50.810;0.284;2023-04-03T12:24:27;12.90;99.90
58517;DHT22;44308;50.810;0.284;2023-04-03T12:32:40;13.00;99.90
58517;DHT22;44308;50.810;0.284;2023-04-03T12:40:30;12.90;99.90
58517;DHT22;44308;50.810;0.284;2023-04-03T12:50:00;13.00;99.90
58517;DHT22;44308;50.810;0.284;2023-04-03T12:52:32;13.20;99.90
58517;DHT22;44308;50.810;0.284;2023-04-03T12:55:00;13.00;99.90
58517;DHT22;44308;50.810;0.284;2023-04-03T12:57:30;13.00;99.90
58517;DHT22;44308;50.810;0.284;2023-04-03T12:59:58;13.10;99.90
58517;DHT22;44308;50.810;0.284;2023-04-03T13:02:32;12.80;99.90
58517;DHT22;44308;50.810;0.284;2023-04-03T13:05:09;12.80;99.90
58517;DHT22;44308;50.810;0.284;2023-04-03T13:07:39;13.00;99.90
58517;DHT22;44308;50.810;0.284;2023-04-03T13:12:33;13.20;99.90
58517;DHT22;44308;50.810;0.284;2023-04-03T13:15:14;13.40;99.90
58517;DHT22;44308;50.810;0.284;2023-04-03T13:17:41;13.50;99.90
58517;DHT22;44308;50.810;0.284;2023-04-03T13:20:13;13.20;99.90
58517;DHT22;44308;50.810;0.284;2023-04-03T13:25:21;12.90;99.90
58517;DHT22;44308;50.810;0.284;2023-04-03T13:27:48;13.10;99.90
58517;DHT22;44308;50.810;0.284;2023-04-03T13:30:36;13.00;99.90
58517;DHT22;44308;50.810;0.284;2023-04-03T13:33:05;13.10;99.90
58517;DHT22;44308;50.810;0.284;2023-04-03T13:35:39;13.30;99.90
58517;DHT22;44308;50.810;0.284;2023-04-03T13:38:26;13.30;99.90
58517;DHT22;44308;50.810;0.284;2023-04-03T13:40:58;13.20;99.90
58517;DHT22;44308;50.810;0.284;2023-04-03T13:43:30;13.10;99.90
58517;DHT22;44308;50.810;0.284;2023-04-03T13:48:43;13.20;99.90
58517;DHT22;44308;50.810;0.284;2023-04-03T13:53:46;13.40;99.90
58517;DHT22;44308;50.810;0.284;2023-04-03T13:56:20;13.30;99.90
58517;DHT22;44308;50.810;0.284;2023-04-03T14:01:52;13.10;99.90
58517;DHT22;44308;50.810;0.284;2023-04-03T14:04:24;13.00;99.90
58517;DHT22;44308;50.810;0.284;2023-04-03T14:06:51;13.10;99.90
58517;DHT22;44308;50.810;0.284;2023-04-03T14:09:18;13.30;99.90
58517;DHT22;44308;50.810;0.284;2023-04-03T14:11:44;13.40;99.90
58517;DHT22;44308;50.810;0.284;2023-04-03T14:14:23;13.30;99.90
58517;DHT22;44308;50.810;0.284;2023-04-03T14:16:54;13.10;99.90
58517;DHT22;44308;50.810;0.284;2023-04-03T14:19:29;13.20;99.90
58517;DHT22;44308;50.810;0.284;2023-04-03T14:21:56;13.10;99.90
58517;DHT22;44308;50.810;0.284;2023-04-03T14:24:23;13.10;99.90
58517;DHT22;44308;50.810;0.284;2023-04-03T14:26:54;13.00;99.90
58517;DHT22;44308;50.810;0.284;2023-04-03T14:29:21;13.00;99.90
58517;DHT22;44308;50.810;0.284;2023-04-03T14:31:48;13.40;99.90
58517;DHT22;44308;50.810;0.284;2023-04-03T14:34:16;13.30;99.90
58517;DHT22;44308;50.810;0.284;2023-04-03T14:36:43;13.30;99.90
58517;DHT22;44308;50.810;0.284;2023-04-03T14:39:18;13.60;99.90
58517;DHT22;44308;50.810;0.284;2023-04-03T14:41:44;13.60;99.90
58517;DHT22;44308;50.810;0.284;2023-04-03T14:44:10;13.00;99.90
58517;DHT22;44308;50.810;0.284;2023-04-03T14:46:38;13.00;99.90
58517;DHT22;44308;50.810;0.284;2023-04-03T14:49:14;13.00;99.90
58517;DHT22;44308;50.810;0.284;2023-04-03T14:51:39;13.10;99.90
58517;DHT22;44308;50.810;0.284;2023-04-03T14:54:06;13.20;99.90
58517;DHT22;44308;50.810;0.284;2023-04-03T14:56:37;13.10;99.90
58517;DHT22;44308;50.810;0.284;2023-04-03T14:59:04;13.20;99.90
58517;DHT22;44308;50.810;0.284;2023-04-03T15:01:33;13.00;99.90
58517;DHT22;44308;50.810;0.284;2023-04-03T15:04:01;12.90;99.90
58517;DHT22;44308;50.810;0.284;2023-04-03T15:06:27;13.00;99.90
58517;DHT22;44308;50.810;0.284;2023-04-03T15:08:53;12.70;99.90
58517;DHT22;44308;50.810;0.284;2023-04-03T15:11:18;12.60;99.90
58517;DHT22;44308;50.810;0.284;2023-04-03T15:13:44;12.90;99.90
58517;DHT22;44308;50.810;0.284;2023-04-03T15:16:16;13.10;99.90
58517;DHT22;44308;50.810;0.284;2023-04-03T15:18:42;12.90;99.90
58517;DHT22;44308;50.810;0.284;2023-04-03T15:21:08;12.80;99.90
58517;DHT22;44308;50.810;0.284;2023-04-03T15:23:34;12.90;99.90
58517;DHT22;44308;50.810;0.284;2023-04-03T15:26:00;13.10;99.90
58517;DHT22;44308;50.810;0.284;2023-04-03T15:28:27;13.20;99.90
58517;DHT22;44308;50.810;0.284;2023-04-03T15:30:54;13.10;99.90
58517;DHT22;44308;50.810;0.284;2023-04-03T15:33:20;13.10;99.90
58517;DHT22;44308;50.810;0.284;2023-04-03T15:35:46;12.90;99.90
58517;DHT22;44308;50.810;0.284;2023-04-03T15:38:12;12.60;99.90
58517;DHT22;44308;50.810;0.284;2023-04-03T15:40:38;12.50;99.90
58517;DHT22;44308;50.810;0.284;2023-04-03T15:43:05;12.40;99.90
58517;DHT22;44308;50.810;0.284;2023-04-03T15:45:32;12.70;99.90
58517;DHT22;44308;50.810;0.284;2023-04-03T15:47:59;12.90;99.90
58517;DHT22;44308;50.810;0.284;2023-04-03T15:50:25;12.80;99.90
58517;DHT22;44308;50.810;0.284;2023-04-03T15:52:51;12.70;99.90
58517;DHT22;44308;50.810;0.284;2023-04-03T15:55:24;12.50;99.90
58517;DHT22;44308;50.810;0.284;2023-04-03T15:57:53;12.10;99.90
58517;DHT22;44308;50.810;0.284;2023-04-03T16:00:20;12.10;99.90
58517;DHT22;44308;50.810;0.284;2023-04-03T16:02:47;12.10;99.90
58517;DHT22;44308;50.810;0.284;2023-04-03T16:05:14;12.20;99.90
58517;DHT22;44308;50.810;0.284;2023-04-03T16:07:41;12.30;99.90
58517;DHT22;44308;50.810;0.284;2023-04-03T16:10:08;12.50;99.90
58517;DHT22;44308;50.810;0.284;2023-04-03T16:12:35;12.40;99.90
58517;DHT22;44308;50.810;0.284;2023-04-03T16:15:03;12.30;99.90
58517;DHT22;44308;50.810;0.284;2023-04-03T16:17:29;12.50;99.90
58517;DHT22;44308;50.810;0.284;2023-04-03T16:19:55;12.50;99.90
58517;DHT22;44308;50.810;0.284;2023-04-03T16:22:24;12.40;99.90
58517;DHT22;44308;50.810;0.284;2023-04-03T16:24:50;12.40;99.90
58517;DHT22;44308;50.810;0.284;2023-04-03T16:27:16;12.10;99.90
58517;DHT22;44308;50.810;0.284;2023-04-03T16:29:44;11.70;99.90
58517;DHT22;44308;50.810;0.284;2023-04-03T16:32:10;11.60;99.90
58517;DHT22;44308;50.810;0.284;2023-04-03T16:34:36;11.60;99.90
58517;DHT22;44308;50.810;0.284;2023-04-03T16:37:02;11.70;99.90
58517;DHT22;44308;50.810;0.284;2023-04-03T16:39:28;11.70;99.90
58517;DHT22;44308;50.810;0.284;2023-04-03T16:41:53;11.70;99.90
58517;DHT22;44308;50.810;0.284;2023-04-03T16:44:19;11.60;99.90
58517;DHT22;44308;50.810;0.284;2023-04-03T16:46:45;11.50;99.90
58517;DHT22;44308;50.810;0.284;2023-04-03T16:49:11;11.60;99.90
58517;DHT22;44308;50.810;0.284;2023-04-03T16:51:37;11.70;99.90
58517;DHT22;44308;50.810;0.284;2023-04-03T16:54:02;11.70;99.90
58517;DHT22;44308;50.810;0.284;2023-04-03T16:56:28;11.40;99.90
58517;DHT22;44308;50.810;0.284;2023-04-03T16:58:54;11.40;99.90
58517;DHT22;44308;50.810;0.284;2023-04-03T17:01:22;11.40;99.90
58517;DHT22;44308;50.810;0.284;2023-04-03T17:03:48;11.50;99.90
58517;DHT22;44308;50.810;0.284;2023-04-03T17:06:19;11.50;99.90
58517;DHT22;44308;50.810;0.284;2023-04-03T17:08:47;11.50;99.90
58517;DHT22;44308;50.810;0.284;2023-04-03T17:11:13;11.60;99.90
58517;DHT22;44308;50.810;0.284;2023-04-03T17:13:39;11.60;99.90
58517;DHT22;44308;50.810;0.284;2023-04-03T17:16:07;11.60;99.90
58517;DHT22;44308;50.810;0.284;2023-04-03T17:18:33;11.50;99.90
58517;DHT22;44308;50.810;0.284;2023-04-03T17:21:02;11.40;99.90
58517;DHT22;44308;50.810;0.284;2023-04-03T17:23:29;11.40;99.90
58517;DHT22;44308;50.810;0.284;2023-04-03T17:25:55;11.40;99.90
58517;DHT22;44308;50.810;0.284;2023-04-03T17:28:22;11.30;99.90
58517;DHT22;44308;50.810;0.284;2023-04-03T17:30:54;11.30;99.90
58517;DHT22;44308;50.810;0.284;2023-04-03T17:33:20;11.20;99.90
58517;DHT22;44308;50.810;0.284;2023-04-03T17:35:46;11.20;99.90
58517;DHT22;44308;50.810;0.284;2023-04-03T17:38:12;11.20;99.90
58517;DHT22;44308;50.810;0.284;2023-04-03T17:40:38;11.00;99.90
58517;DHT22;44308;50.810;0.284;2023-04-03T17:43:04;11.00;99.90
58517;DHT22;44308;50.810;0.284;2023-04-03T17:45:30;10.90;99.90
58517;DHT22;44308;50.810;0.284;2023-04-03T17:47:59;10.80;99.90
58517;DHT22;44308;50.810;0.284;2023-04-03T17:50:25;10.70;99.90
58517;DHT22;44308;50.810;0.284;2023-04-03T17:52:50;10.50;99.90
58517;DHT22;44308;50.810;0.284;2023-04-03T17:55:16;10.40;99.90